Terminal Aerodrome Forecast
Issued by NWS

Home | Current Version | Previous Version | Text Only | Print | Product List | Glossary Off
Versions: 1 2 3 4 5 6 7 8 9 10 11 12 13 14 15 16 17 18 19 20 21 22 23 24 25 26 27 28 29 30 31

039
FTUS43 KLOT 170250 AAA
TAFDPA
TAF AMD
KDPA 170250Z 1703/1724 11005KT P6SM OVC021
     FM171000 15008KT P6SM SCT017 BKN150
     FM171500 16015G23KT P6SM SCT025 BKN035
     FM172000 17015G23KT P6SM -SHRA SCT015 BKN025=

USA.gov is the U.S. government's official web portal to all federal, state and local government web resources and services.